createdAt,value
2022-12-11T00:00:14.037Z,978.69
2022-12-11T00:01:14.039Z,978.70
2022-12-11T00:02:14.056Z,978.68
2022-12-11T00:03:16.098Z,978.70
2022-12-11T00:04:14.004Z,978.73
2022-12-11T00:05:13.976Z,978.68
2022-12-11T00:06:13.993Z,978.65
2022-12-11T00:07:13.967Z,978.64
2022-12-11T00:08:14.082Z,978.66
2022-12-11T00:09:13.935Z,978.60
2022-12-11T00:10:13.935Z,978.60
2022-12-11T00:11:13.916Z,978.60
2022-12-11T00:12:13.926Z,978.59
2022-12-11T00:13:13.902Z,978.60
2022-12-11T00:14:13.908Z,978.56
2022-12-11T00:15:14.013Z,978.64
2022-12-11T00:16:13.905Z,978.74
2022-12-11T00:17:13.855Z,978.68
2022-12-11T00:18:13.866Z,978.68
2022-12-11T00:19:13.836Z,978.71
2022-12-11T00:20:13.827Z,978.73
2022-12-11T00:21:13.813Z,978.73
2022-12-11T00:22:13.810Z,978.69
2022-12-11T00:23:13.796Z,978.64
2022-12-11T00:24:13.807Z,978.72
2022-12-11T00:25:13.879Z,978.62
2022-12-11T00:26:13.779Z,978.59
2022-12-11T00:27:13.755Z,978.58
2022-12-11T00:28:13.748Z,978.67
2022-12-11T00:29:13.733Z,978.68
2022-12-11T00:30:13.744Z,978.69
2022-12-11T00:31:13.709Z,978.58
2022-12-11T00:32:13.776Z,978.65
2022-12-11T00:33:13.696Z,978.60
2022-12-11T00:34:13.698Z,978.58
2022-12-11T00:35:13.935Z,978.60
2022-12-11T00:36:13.666Z,978.56
2022-12-11T00:37:13.793Z,978.61
2022-12-11T00:38:13.650Z,978.61
2022-12-11T00:39:13.635Z,978.62
2022-12-11T00:40:13.641Z,978.54
2022-12-11T00:41:13.617Z,978.60
2022-12-11T00:42:13.599Z,978.47
2022-12-11T00:43:13.585Z,978.56
2022-12-11T00:44:13.597Z,978.52
2022-12-11T00:45:13.719Z,978.60
2022-12-11T00:46:13.581Z,978.60
2022-12-11T00:47:13.546Z,978.59
2022-12-11T00:48:13.537Z,978.56
2022-12-11T00:49:13.524Z,978.55
2022-12-11T00:50:13.526Z,978.54
2022-12-11T00:51:13.507Z,978.55
2022-12-11T00:52:13.517Z,978.55
2022-12-11T00:53:13.483Z,978.50
2022-12-11T00:54:13.477Z,978.53
2022-12-11T00:55:13.477Z,978.54
2022-12-11T00:56:13.456Z,978.58
2022-12-11T00:57:13.465Z,978.50
2022-12-11T00:58:13.436Z,978.60
2022-12-11T00:59:13.426Z,978.62
2022-12-11T01:00:13.418Z,978.58
2022-12-11T01:01:13.461Z,978.57
2022-12-11T01:02:13.394Z,978.64
2022-12-11T01:03:13.495Z,978.62
2022-12-11T01:04:13.377Z,978.67
2022-12-11T01:05:13.556Z,978.64
2022-12-11T01:06:13.366Z,978.64
2022-12-11T01:07:13.337Z,978.68
2022-12-11T01:08:13.398Z,978.68
2022-12-11T01:09:13.335Z,978.69
2022-12-11T01:10:13.376Z,978.72
2022-12-11T01:11:13.307Z,978.73
2022-12-11T01:12:13.296Z,978.74
2022-12-11T01:13:13.294Z,978.75
2022-12-11T01:14:13.272Z,978.77
2022-12-11T01:15:13.445Z,978.77
2022-12-11T01:16:13.308Z,978.72
2022-12-11T01:17:13.236Z,978.84
2022-12-11T01:18:13.247Z,978.78
2022-12-11T01:19:13.215Z,978.79
2022-12-11T01:20:13.209Z,978.79
2022-12-11T01:21:13.197Z,978.83
2022-12-11T01:22:13.214Z,978.82
2022-12-11T01:23:13.233Z,978.93
2022-12-11T01:24:13.185Z,978.89
2022-12-11T01:25:13.229Z,978.95
2022-12-11T01:26:13.146Z,978.86
2022-12-11T01:27:13.129Z,978.89
2022-12-11T01:28:13.136Z,978.92
2022-12-11T01:29:13.126Z,978.96
2022-12-11T01:30:13.106Z,978.92
2022-12-11T01:31:13.125Z,978.93
2022-12-11T01:32:13.098Z,978.96
2022-12-11T01:33:13.079Z,978.94
2022-12-11T01:34:13.082Z,978.96
2022-12-11T01:35:13.394Z,978.92
2022-12-11T01:36:13.047Z,978.91
2022-12-11T01:37:13.047Z,978.96
2022-12-11T01:38:13.026Z,978.82
2022-12-11T01:39:13.019Z,978.92
2022-12-11T01:40:13.005Z,978.85
2022-12-11T01:41:12.987Z,978.86
2022-12-11T01:42:13.005Z,978.87
2022-12-11T01:43:12.968Z,978.95
2022-12-11T01:44:12.966Z,978.89
2022-12-11T01:45:13.084Z,978.91
2022-12-11T01:46:13.025Z,978.91
2022-12-11T01:47:12.928Z,978.93
2022-12-11T01:48:12.937Z,978.92
2022-12-11T01:49:12.916Z,978.93
2022-12-11T01:50:12.898Z,978.88
2022-12-11T01:51:12.885Z,978.89
2022-12-11T01:52:12.877Z,978.90
2022-12-11T01:53:12.867Z,978.93
2022-12-11T01:54:12.879Z,979.01
2022-12-11T01:55:12.960Z,978.95
2022-12-11T01:56:12.849Z,978.95
2022-12-11T01:57:12.825Z,978.98
2022-12-11T01:58:12.821Z,978.96
2022-12-11T01:59:12.831Z,978.97
2022-12-11T02:00:12.800Z,979.01
2022-12-11T02:01:12.830Z,979.06
2022-12-11T02:02:12.796Z,979.02
2022-12-11T02:03:12.764Z,979.08
2022-12-11T02:04:12.768Z,979.02
2022-12-11T02:05:13.121Z,979.01
2022-12-11T02:06:12.748Z,978.96
2022-12-11T02:07:12.731Z,979.02
2022-12-11T02:08:12.781Z,979.04
2022-12-11T02:09:12.707Z,979.00
2022-12-11T02:10:12.697Z,979.01
2022-12-11T02:11:12.701Z,978.99
2022-12-11T02:12:12.672Z,979.03
2022-12-11T02:13:12.665Z,979.12
2022-12-11T02:14:12.648Z,979.07
2022-12-11T02:15:12.868Z,979.09
2022-12-11T02:16:12.689Z,979.10
2022-12-11T02:17:12.638Z,979.12
2022-12-11T02:18:12.621Z,979.09
2022-12-11T02:19:12.598Z,979.11
2022-12-11T02:20:12.587Z,979.11
2022-12-11T02:21:12.578Z,979.14
2022-12-11T02:22:12.567Z,979.19
2022-12-11T02:23:12.573Z,979.17
2022-12-11T02:24:12.550Z,979.12
2022-12-11T02:25:12.814Z,979.06
2022-12-11T02:26:12.528Z,979.06
2022-12-11T02:27:12.536Z,979.05
2022-12-11T02:28:12.525Z,979.04
2022-12-11T02:29:12.507Z,979.02
2022-12-11T02:30:12.488Z,978.96
2022-12-11T02:31:12.533Z,978.97
2022-12-11T02:32:12.468Z,978.97
2022-12-11T02:33:12.448Z,978.94
2022-12-11T02:34:12.477Z,978.92
2022-12-11T02:35:12.802Z,978.94
2022-12-11T02:36:12.427Z,978.97
2022-12-11T02:37:12.428Z,978.88
2022-12-11T02:38:12.408Z,978.92
2022-12-11T02:39:12.408Z,978.95
2022-12-11T02:40:33.391Z,978.93
2022-12-11T02:41:12.422Z,978.94
2022-12-11T02:42:12.371Z,978.95
2022-12-11T02:43:12.376Z,978.93
2022-12-11T02:44:12.374Z,978.95
2022-12-11T02:45:12.604Z,978.97
2022-12-11T02:46:12.411Z,978.97
2022-12-11T02:47:12.326Z,978.96
2022-12-11T02:48:12.332Z,978.99
2022-12-11T02:49:12.300Z,978.98
2022-12-11T02:50:12.281Z,979.00
2022-12-11T02:51:12.304Z,978.99
2022-12-11T02:52:12.268Z,979.02
2022-12-11T02:53:12.264Z,979.00
2022-12-11T02:54:12.240Z,978.99
2022-12-11T02:55:12.648Z,979.01
2022-12-11T02:56:12.242Z,979.03
2022-12-11T02:57:12.251Z,979.07
2022-12-11T02:58:12.231Z,979.08
2022-12-11T02:59:12.194Z,979.06
2022-12-11T03:00:12.223Z,979.01
2022-12-11T03:01:12.206Z,979.05
2022-12-11T03:02:12.234Z,979.05
2022-12-11T03:03:12.172Z,979.02
2022-12-11T03:04:12.141Z,979.01
2022-12-11T03:05:12.506Z,979.06
2022-12-11T03:06:12.164Z,978.96
2022-12-11T03:07:12.263Z,978.92
2022-12-11T03:08:12.137Z,978.98
2022-12-11T03:09:12.102Z,978.94
2022-12-11T03:10:12.092Z,978.93
2022-12-11T03:11:12.071Z,978.88
2022-12-11T03:12:12.094Z,978.87
2022-12-11T03:13:12.061Z,978.85
2022-12-11T03:14:12.032Z,978.92
2022-12-11T03:15:12.265Z,978.92
2022-12-11T03:16:12.078Z,978.84
2022-12-11T03:17:12.020Z,978.86
2022-12-11T03:18:12.021Z,978.85
2022-12-11T03:19:12.012Z,978.89
2022-12-11T03:20:11.981Z,978.92
2022-12-11T03:21:11.969Z,978.90
2022-12-11T03:22:11.974Z,978.91
2022-12-11T03:23:11.984Z,978.87
2022-12-11T03:24:11.936Z,978.92
2022-12-11T03:25:12.212Z,978.90
2022-12-11T03:26:11.921Z,979.00
2022-12-11T03:27:11.911Z,978.90
2022-12-11T03:28:11.891Z,978.87
2022-12-11T03:29:11.900Z,978.95
2022-12-11T03:30:11.870Z,978.96
2022-12-11T03:31:11.937Z,978.94
2022-12-11T03:32:11.853Z,979.01
2022-12-11T03:33:11.867Z,978.98
2022-12-11T03:34:11.840Z,978.91
2022-12-11T03:35:12.270Z,979.02
2022-12-11T03:36:11.823Z,978.97
2022-12-11T03:37:11.811Z,978.94
2022-12-11T03:38:11.825Z,979.00
2022-12-11T03:39:11.792Z,979.02
2022-12-11T03:40:11.781Z,978.96
2022-12-11T03:41:11.791Z,978.94
2022-12-11T03:42:11.743Z,978.90
2022-12-11T03:43:11.743Z,978.89
2022-12-11T03:44:11.732Z,978.92
2022-12-11T03:45:11.991Z,978.89
2022-12-11T03:46:11.768Z,978.89
2022-12-11T03:47:11.718Z,978.83
2022-12-11T03:48:11.691Z,978.93
2022-12-11T03:49:11.683Z,978.87
2022-12-11T03:50:11.674Z,978.92
2022-12-11T03:51:11.674Z,978.92
2022-12-11T03:52:11.642Z,978.94
2022-12-11T03:53:11.634Z,978.92
2022-12-11T03:54:11.629Z,978.85
2022-12-11T03:55:12.122Z,978.97
2022-12-11T03:56:11.623Z,978.87
2022-12-11T03:57:11.631Z,978.86
2022-12-11T03:58:11.582Z,978.85
2022-12-11T03:59:11.589Z,978.89
2022-12-11T04:00:11.596Z,978.86
2022-12-11T04:01:11.552Z,978.84
2022-12-11T04:02:11.562Z,978.84
2022-12-11T04:03:13.864Z,978.87
2022-12-11T04:04:11.548Z,978.78
2022-12-11T04:05:11.896Z,978.82
2022-12-11T04:06:11.531Z,978.82
2022-12-11T04:07:11.492Z,978.73
2022-12-11T04:08:11.559Z,978.78
2022-12-11T04:09:11.482Z,978.78
2022-12-11T04:10:11.473Z,978.75
2022-12-11T04:11:11.521Z,978.72
2022-12-11T04:12:11.443Z,978.76
2022-12-11T04:13:11.750Z,978.69
2022-12-11T04:14:11.419Z,978.69
2022-12-11T04:15:11.634Z,978.70
2022-12-11T04:16:11.441Z,978.69
2022-12-11T04:17:11.403Z,978.68
2022-12-11T04:18:11.380Z,978.67
2022-12-11T04:19:11.362Z,978.68
2022-12-11T04:20:11.373Z,978.61
2022-12-11T04:21:11.342Z,978.69
2022-12-11T04:22:11.360Z,978.71
2022-12-11T04:23:11.323Z,978.55
2022-12-11T04:24:11.343Z,978.61
2022-12-11T04:25:11.666Z,978.52
2022-12-11T04:26:11.313Z,978.52
2022-12-11T04:27:11.301Z,978.48
2022-12-11T04:28:11.283Z,978.44
2022-12-11T04:29:11.293Z,978.46
2022-12-11T04:30:12.217Z,978.47
2022-12-11T04:31:11.290Z,978.41
2022-12-11T04:32:11.243Z,978.42
2022-12-11T04:33:11.237Z,978.44
2022-12-11T04:34:11.250Z,978.51
2022-12-11T04:35:11.497Z,978.51
2022-12-11T04:36:11.203Z,978.38
2022-12-11T04:37:11.193Z,978.46
2022-12-11T04:38:11.172Z,978.40
2022-12-11T04:39:11.174Z,978.35
2022-12-11T04:40:11.154Z,978.33
2022-12-11T04:41:11.145Z,978.32
2022-12-11T04:42:11.142Z,978.30
2022-12-11T04:43:11.144Z,978.29
2022-12-11T04:44:11.113Z,978.29
2022-12-11T04:45:11.485Z,978.26
2022-12-11T04:46:11.176Z,978.27
2022-12-11T04:47:11.092Z,978.31
2022-12-11T04:48:11.100Z,978.29
2022-12-11T04:49:11.054Z,978.30
2022-12-11T04:50:11.073Z,978.27
2022-12-11T04:51:11.043Z,978.37
2022-12-11T04:52:11.035Z,978.32
2022-12-11T04:53:11.014Z,978.40
2022-12-11T04:54:11.023Z,978.45
2022-12-11T04:55:11.334Z,978.58
2022-12-11T04:56:10.995Z,978.65
2022-12-11T04:57:10.993Z,978.72
2022-12-11T04:58:10.984Z,978.62
2022-12-11T04:59:10.971Z,978.67
2022-12-11T05:00:10.967Z,978.62
2022-12-11T05:01:11.063Z,978.55
2022-12-11T05:02:10.923Z,978.58
2022-12-11T05:03:10.984Z,978.48
2022-12-11T05:04:10.913Z,978.50
2022-12-11T05:05:11.213Z,978.47
2022-12-11T05:06:10.922Z,978.44
2022-12-11T05:07:10.894Z,978.51
2022-12-11T05:08:10.914Z,978.49
2022-12-11T05:09:10.875Z,978.46
2022-12-11T05:10:10.861Z,978.45
2022-12-11T05:11:10.834Z,978.46
2022-12-11T05:12:10.823Z,978.43
2022-12-11T05:13:10.824Z,978.45
2022-12-11T05:14:10.803Z,978.42
2022-12-11T05:15:11.104Z,978.33
2022-12-11T05:16:10.837Z,978.33
2022-12-11T05:17:10.851Z,978.26
2022-12-11T05:18:10.775Z,978.30
2022-12-11T05:19:10.780Z,978.34
2022-12-11T05:20:10.743Z,978.42
2022-12-11T05:21:10.726Z,978.46
2022-12-11T05:22:10.742Z,978.53
2022-12-11T05:23:10.714Z,978.58
2022-12-11T05:24:10.693Z,978.62
2022-12-11T05:25:10.999Z,978.66
2022-12-11T05:26:10.673Z,978.75
2022-12-11T05:27:10.671Z,978.67
2022-12-11T05:28:10.654Z,978.67
2022-12-11T05:29:10.653Z,978.65
2022-12-11T05:30:10.644Z,978.66
2022-12-11T05:31:10.769Z,978.67
2022-12-11T05:32:10.634Z,978.70
2022-12-11T05:33:10.598Z,978.66
2022-12-11T05:34:10.609Z,978.59
2022-12-11T05:35:10.771Z,978.55
2022-12-11T05:36:10.584Z,978.57
2022-12-11T05:37:10.720Z,978.60
2022-12-11T05:38:10.581Z,978.53
2022-12-11T05:39:10.554Z,978.56
2022-12-11T05:40:10.534Z,978.49
2022-12-11T05:41:10.514Z,978.62
2022-12-11T05:42:10.626Z,978.51
2022-12-11T05:43:10.513Z,978.50
2022-12-11T05:44:10.517Z,978.50
2022-12-11T05:45:10.702Z,978.52
2022-12-11T05:46:10.551Z,978.46
2022-12-11T05:47:10.454Z,978.49
2022-12-11T05:48:10.485Z,978.57
2022-12-11T05:49:10.445Z,978.53
2022-12-11T05:50:10.434Z,978.53
2022-12-11T05:51:10.424Z,978.54
2022-12-11T05:52:10.432Z,978.46
2022-12-11T05:53:10.431Z,978.43
2022-12-11T05:54:10.384Z,978.44
2022-12-11T05:55:10.667Z,978.41
2022-12-11T05:56:10.373Z,978.48
2022-12-11T05:57:10.364Z,978.50
2022-12-11T05:58:10.385Z,978.45
2022-12-11T05:59:10.353Z,978.45
2022-12-11T06:00:10.325Z,978.41
2022-12-11T06:01:10.313Z,978.46
2022-12-11T06:02:10.431Z,978.44
2022-12-11T06:03:10.471Z,978.44
2022-12-11T06:04:10.317Z,978.53
2022-12-11T06:05:10.621Z,978.47
2022-12-11T06:06:10.289Z,978.50
2022-12-11T06:07:10.934Z,978.43
2022-12-11T06:08:10.344Z,978.48
2022-12-11T06:09:10.266Z,978.39
2022-12-11T06:10:10.236Z,978.45
2022-12-11T06:11:10.223Z,978.40
2022-12-11T06:12:10.217Z,978.38
2022-12-11T06:13:10.187Z,978.37
2022-12-11T06:14:10.195Z,978.35
2022-12-11T06:15:10.595Z,978.33
2022-12-11T06:16:10.225Z,978.34
2022-12-11T06:17:10.144Z,978.32
2022-12-11T06:18:10.174Z,978.33
2022-12-11T06:19:10.215Z,978.32
2022-12-11T06:20:10.128Z,978.32
2022-12-11T06:21:10.134Z,978.25
2022-12-11T06:22:10.107Z,978.28
2022-12-11T06:23:10.104Z,978.32
2022-12-11T06:24:10.112Z,978.31
2022-12-11T06:25:10.355Z,978.35
2022-12-11T06:26:10.065Z,978.30
2022-12-11T06:27:10.058Z,978.34
2022-12-11T06:28:10.045Z,978.36
2022-12-11T06:29:12.973Z,978.38
2022-12-11T06:30:10.037Z,978.33
2022-12-11T06:31:10.091Z,978.30
2022-12-11T06:32:09.995Z,978.32
2022-12-11T06:33:09.992Z,978.31
2022-12-11T06:34:09.974Z,978.32
2022-12-11T06:35:10.283Z,978.26
2022-12-11T06:36:09.956Z,978.24
2022-12-11T06:37:09.945Z,978.24
2022-12-11T06:38:09.952Z,978.23
2022-12-11T06:39:09.925Z,978.21
2022-12-11T06:40:09.924Z,978.16
2022-12-11T06:41:09.924Z,978.20
2022-12-11T06:42:09.894Z,978.15
2022-12-11T06:43:09.894Z,978.19
2022-12-11T06:44:09.884Z,978.15
2022-12-11T06:45:10.396Z,978.18
2022-12-11T06:46:10.019Z,978.22
2022-12-11T06:47:09.844Z,978.17
2022-12-11T06:48:09.844Z,978.18
2022-12-11T06:49:09.815Z,978.20
2022-12-11T06:50:10.091Z,978.17
2022-12-11T06:51:09.815Z,978.18
2022-12-11T06:52:13.658Z,978.25
2022-12-11T06:53:10.795Z,978.21
2022-12-11T06:54:09.805Z,978.26
2022-12-11T06:55:10.140Z,978.29
2022-12-11T06:56:09.754Z,978.29
2022-12-11T06:57:09.744Z,978.26
2022-12-11T06:58:09.761Z,978.29
2022-12-11T06:59:09.736Z,978.35
2022-12-11T07:00:09.715Z,978.37
2022-12-11T07:01:09.736Z,978.32
2022-12-11T07:02:09.740Z,978.38
2022-12-11T07:03:09.746Z,978.47
2022-12-11T07:04:09.685Z,978.42
2022-12-11T07:05:10.020Z,978.47
2022-12-11T07:06:09.654Z,978.56
2022-12-11T07:07:09.651Z,978.59
2022-12-11T07:08:09.699Z,978.62
2022-12-11T07:09:09.626Z,978.67
2022-12-11T07:10:09.606Z,978.71
2022-12-11T07:11:09.704Z,978.64
2022-12-11T07:12:09.584Z,978.63
2022-12-11T07:13:09.574Z,978.65
2022-12-11T07:14:09.565Z,978.63
2022-12-11T07:15:09.979Z,978.58
2022-12-11T07:16:09.604Z,978.57
2022-12-11T07:17:09.535Z,978.55
2022-12-11T07:18:09.526Z,978.55
2022-12-11T07:19:09.529Z,978.52
2022-12-11T07:20:09.539Z,978.51
2022-12-11T07:21:09.494Z,978.48
2022-12-11T07:22:09.502Z,978.49
2022-12-11T07:23:09.540Z,978.49
2022-12-11T07:24:09.456Z,978.52
2022-12-11T07:25:09.847Z,978.50
2022-12-11T07:26:09.455Z,978.52
2022-12-11T07:27:09.443Z,978.50
2022-12-11T07:28:15.143Z,978.59
2022-12-11T07:29:10.425Z,978.51
2022-12-11T07:30:09.785Z,978.53
2022-12-11T07:31:09.393Z,978.52
2022-12-11T07:32:09.497Z,978.52
2022-12-11T07:33:09.375Z,978.52
2022-12-11T07:34:09.398Z,978.54
2022-12-11T07:35:09.902Z,978.56
2022-12-11T07:36:09.345Z,978.57
2022-12-11T07:37:09.335Z,978.58
2022-12-11T07:38:09.346Z,978.56
2022-12-11T07:39:09.305Z,978.59
2022-12-11T07:40:09.297Z,978.59
2022-12-11T07:41:09.302Z,978.58
2022-12-11T07:42:09.288Z,978.61
2022-12-11T07:43:09.279Z,978.58
2022-12-11T07:44:09.298Z,978.54
2022-12-11T07:45:09.476Z,978.61
2022-12-11T07:46:09.322Z,978.64
2022-12-11T07:47:09.235Z,978.56
2022-12-11T07:48:09.224Z,978.68
2022-12-11T07:49:09.205Z,978.62
2022-12-11T07:50:09.883Z,978.70
2022-12-11T07:51:09.196Z,978.64
2022-12-11T07:52:10.215Z,978.60
2022-12-11T07:53:09.185Z,978.62
2022-12-11T07:54:10.181Z,978.59
2022-12-11T07:55:09.679Z,978.58
2022-12-11T07:56:10.164Z,978.58
2022-12-11T07:57:13.852Z,978.58
2022-12-11T07:58:11.117Z,978.63
2022-12-11T07:59:09.105Z,978.61
2022-12-11T08:00:09.180Z,978.61
2022-12-11T08:01:09.155Z,978.58
2022-12-11T08:02:09.884Z,978.56
2022-12-11T08:03:09.064Z,978.58
2022-12-11T08:04:09.094Z,978.57
2022-12-11T08:05:09.265Z,978.57
2022-12-11T08:06:09.096Z,978.53
2022-12-11T08:07:09.035Z,978.50
2022-12-11T08:08:09.056Z,978.57
2022-12-11T08:09:09.025Z,978.50
2022-12-11T08:10:09.008Z,978.61
2022-12-11T08:11:09.007Z,978.53
2022-12-11T08:12:08.964Z,978.54
2022-12-11T08:13:08.956Z,978.57
2022-12-11T08:14:08.955Z,978.49
2022-12-11T08:15:09.210Z,978.57
2022-12-11T08:16:08.935Z,978.53
2022-12-11T08:17:08.927Z,978.54
2022-12-11T08:18:08.906Z,978.54
2022-12-11T08:19:09.091Z,978.54
2022-12-11T08:20:08.884Z,978.51
2022-12-11T08:21:08.884Z,978.53
2022-12-11T08:22:08.866Z,978.55
2022-12-11T08:23:08.882Z,978.55
2022-12-11T08:24:08.852Z,978.53
2022-12-11T08:25:09.069Z,978.53
2022-12-11T08:26:08.827Z,978.49
2022-12-11T08:27:08.812Z,978.54
2022-12-11T08:28:08.805Z,978.56
2022-12-11T08:29:08.794Z,978.58
2022-12-11T08:30:08.799Z,978.62
2022-12-11T08:31:08.839Z,978.54
2022-12-11T08:32:12.237Z,978.63
2022-12-11T08:33:08.746Z,978.57
2022-12-11T08:34:08.746Z,978.58
2022-12-11T08:35:08.903Z,978.61
2022-12-11T08:36:08.725Z,978.61
2022-12-11T08:37:08.722Z,978.58
2022-12-11T08:38:08.715Z,978.62
2022-12-11T08:39:08.695Z,978.59
2022-12-11T08:40:08.687Z,978.59
2022-12-11T08:41:08.694Z,978.58
2022-12-11T08:42:08.668Z,978.61
2022-12-11T08:43:08.647Z,978.69
2022-12-11T08:44:12.954Z,978.67
2022-12-11T08:45:10.116Z,978.63
2022-12-11T08:46:08.665Z,978.66
2022-12-11T08:47:08.617Z,978.60
2022-12-11T08:48:08.597Z,978.69
2022-12-11T08:49:08.645Z,978.72
2022-12-11T08:50:08.577Z,978.71
2022-12-11T08:51:08.566Z,978.67
2022-12-11T08:52:08.557Z,978.68
2022-12-11T08:53:08.556Z,978.71
2022-12-11T08:54:08.813Z,978.64
2022-12-11T08:55:08.804Z,978.69
2022-12-11T08:56:08.515Z,978.62
2022-12-11T08:57:08.510Z,978.66
2022-12-11T08:58:08.509Z,978.65
2022-12-11T08:59:08.667Z,978.56
2022-12-11T09:00:08.467Z,978.52
2022-12-11T09:01:08.545Z,978.49
2022-12-11T09:02:08.498Z,978.45
2022-12-11T09:03:12.604Z,978.45
2022-12-11T09:04:08.450Z,978.41
2022-12-11T09:05:09.519Z,978.43
2022-12-11T09:06:08.426Z,978.38
2022-12-11T09:07:09.116Z,978.44
2022-12-11T09:08:08.505Z,978.43
2022-12-11T09:09:09.095Z,978.41
2022-12-11T09:10:08.377Z,978.40
2022-12-11T09:11:09.088Z,978.40
2022-12-11T09:12:08.347Z,978.49
2022-12-11T09:13:08.366Z,978.44
2022-12-11T09:14:08.469Z,978.43
2022-12-11T09:15:08.491Z,978.41
2022-12-11T09:16:08.344Z,978.45
2022-12-11T09:17:08.300Z,978.41
2022-12-11T09:18:08.631Z,978.42
2022-12-11T09:19:08.539Z,978.44
2022-12-11T09:20:08.645Z,978.45
2022-12-11T09:21:08.267Z,978.40
2022-12-11T09:22:08.235Z,978.38
2022-12-11T09:23:08.238Z,978.40
2022-12-11T09:24:08.227Z,978.39
2022-12-11T09:25:08.276Z,978.36
2022-12-11T09:26:08.214Z,978.38
2022-12-11T09:27:08.213Z,978.40
2022-12-11T09:28:08.179Z,978.39
2022-12-11T09:29:08.199Z,978.43
2022-12-11T09:30:08.166Z,978.42
2022-12-11T09:31:08.196Z,978.44
2022-12-11T09:32:08.134Z,978.40
2022-12-11T09:33:08.306Z,978.40
2022-12-11T09:34:08.139Z,978.44
2022-12-11T09:35:08.297Z,978.43
2022-12-11T09:36:08.106Z,978.37
2022-12-11T09:37:08.110Z,978.40
2022-12-11T09:38:08.087Z,978.34
2022-12-11T09:39:08.077Z,978.40
2022-12-11T09:40:08.214Z,978.39
2022-12-11T09:41:08.074Z,978.36
2022-12-11T09:42:08.307Z,978.40
2022-12-11T09:43:08.044Z,978.37
2022-12-11T09:44:08.026Z,978.38
2022-12-11T09:45:08.171Z,978.37
2022-12-11T09:46:08.025Z,978.38
2022-12-11T09:47:08.338Z,978.37
2022-12-11T09:48:07.973Z,978.34
2022-12-11T09:49:07.967Z,978.37
2022-12-11T09:50:07.957Z,978.37
2022-12-11T09:51:07.949Z,978.34
2022-12-11T09:52:07.958Z,978.41
2022-12-11T09:53:07.930Z,978.38
2022-12-11T09:54:07.917Z,978.33
2022-12-11T09:55:08.163Z,978.32
2022-12-11T09:56:07.887Z,978.32
2022-12-11T09:57:07.909Z,978.29
2022-12-11T09:58:07.879Z,978.29
2022-12-11T09:59:08.147Z,978.29
2022-12-11T10:00:07.922Z,978.28
2022-12-11T10:01:07.896Z,978.24
2022-12-11T10:02:07.827Z,978.32
2022-12-11T10:03:07.819Z,978.30
2022-12-11T10:04:07.797Z,978.27
2022-12-11T10:05:07.829Z,978.35
2022-12-11T10:06:07.798Z,978.32
2022-12-11T10:07:07.787Z,978.28
2022-12-11T10:08:07.793Z,978.29
2022-12-11T10:09:07.758Z,978.27
2022-12-11T10:10:07.738Z,978.27
2022-12-11T10:11:07.768Z,978.30
2022-12-11T10:12:07.744Z,978.30
2022-12-11T10:13:07.717Z,978.24
2022-12-11T10:14:07.828Z,978.22
2022-12-11T10:15:07.790Z,978.21
2022-12-11T10:16:07.753Z,978.22
2022-12-11T10:17:07.675Z,978.29
2022-12-11T10:18:07.670Z,978.24
2022-12-11T10:19:07.667Z,978.20
2022-12-11T10:20:07.657Z,978.21
2022-12-11T10:21:07.653Z,978.14
2022-12-11T10:22:07.628Z,978.11
2022-12-11T10:23:08.214Z,978.12
2022-12-11T10:24:07.598Z,978.10
2022-12-11T10:25:11.143Z,978.06
2022-12-11T10:26:07.599Z,978.05
2022-12-11T10:27:07.609Z,978.03
2022-12-11T10:28:07.559Z,978.03
2022-12-11T10:29:07.669Z,978.02
2022-12-11T10:30:07.557Z,977.96
2022-12-11T10:31:07.562Z,977.97
2022-12-11T10:32:07.539Z,977.99
2022-12-11T10:33:07.526Z,977.97
2022-12-11T10:34:07.508Z,977.95
2022-12-11T10:35:07.490Z,977.93
2022-12-11T10:36:07.489Z,977.94
2022-12-11T10:37:07.497Z,977.88
2022-12-11T10:38:07.459Z,977.91
2022-12-11T10:39:07.469Z,977.93
2022-12-11T10:40:07.429Z,977.95
2022-12-11T10:41:07.440Z,977.88
2022-12-11T10:42:07.426Z,977.90
2022-12-11T10:43:07.699Z,977.96
2022-12-11T10:44:07.392Z,977.94
2022-12-11T10:45:07.388Z,977.91
2022-12-11T10:46:07.490Z,977.90
2022-12-11T10:47:07.378Z,977.86
2022-12-11T10:48:07.379Z,977.91
2022-12-11T10:49:07.358Z,977.84
2022-12-11T10:50:07.331Z,977.77
2022-12-11T10:51:07.319Z,977.83
2022-12-11T10:52:07.327Z,977.79
2022-12-11T10:53:07.320Z,977.72
2022-12-11T10:54:07.624Z,977.71
2022-12-11T10:55:07.299Z,977.73
2022-12-11T10:56:07.279Z,977.70
2022-12-11T10:57:07.268Z,977.65
2022-12-11T10:58:07.240Z,977.68
2022-12-11T10:59:07.250Z,977.65
2022-12-11T11:00:07.513Z,977.64
2022-12-11T11:01:07.240Z,977.64
2022-12-11T11:02:07.259Z,977.63
2022-12-11T11:03:07.238Z,977.67
2022-12-11T11:04:07.205Z,977.68
2022-12-11T11:05:07.199Z,977.63
2022-12-11T11:06:07.170Z,977.65
2022-12-11T11:07:07.170Z,977.70
2022-12-11T11:08:07.462Z,977.64
2022-12-11T11:09:07.191Z,977.66
2022-12-11T11:10:07.400Z,977.61
2022-12-11T11:11:07.121Z,977.66
2022-12-11T11:12:08.254Z,977.62
2022-12-11T11:13:07.110Z,977.66
2022-12-11T11:14:07.087Z,977.62
2022-12-11T11:15:07.080Z,977.65
2022-12-11T11:16:07.145Z,977.63
2022-12-11T11:17:07.051Z,977.53
2022-12-11T11:18:07.040Z,977.58
2022-12-11T11:19:07.060Z,977.54
2022-12-11T11:20:07.016Z,977.59
2022-12-11T11:21:07.010Z,977.58
2022-12-11T11:22:07.012Z,977.57
2022-12-11T11:23:06.981Z,977.55
2022-12-11T11:24:06.971Z,977.59
2022-12-11T11:25:06.980Z,977.58
2022-12-11T11:26:06.950Z,977.52
2022-12-11T11:27:14.388Z,977.53
2022-12-11T11:28:07.948Z,977.55
2022-12-11T11:29:07.440Z,977.45
2022-12-11T11:30:06.933Z,977.45
2022-12-11T11:31:06.988Z,977.46
2022-12-11T11:32:07.122Z,977.46
2022-12-11T11:33:06.893Z,977.41
2022-12-11T11:34:06.861Z,977.44
2022-12-11T11:35:06.901Z,977.46
2022-12-11T11:36:06.843Z,977.48
2022-12-11T11:37:06.832Z,977.46
2022-12-11T11:38:06.831Z,977.46
2022-12-11T11:39:06.811Z,977.49
2022-12-11T11:40:06.821Z,977.47
2022-12-11T11:41:13.132Z,977.49
2022-12-11T11:43:18.864Z,977.38
2022-12-11T11:44:18.820Z,977.40
2022-12-11T11:45:18.847Z,977.44
2022-12-11T11:46:18.859Z,977.37
2022-12-11T11:47:18.809Z,977.41
2022-12-11T11:48:18.804Z,977.34
2022-12-11T11:49:18.800Z,977.37
2022-12-11T11:50:18.792Z,977.32
2022-12-11T11:51:18.781Z,977.24
2022-12-11T11:52:18.760Z,977.27
2022-12-11T11:53:18.742Z,977.23
2022-12-11T11:54:18.730Z,977.25
2022-12-11T11:55:22.479Z,977.26
2022-12-11T11:56:18.725Z,977.26
2022-12-11T11:57:18.711Z,977.30
2022-12-11T11:58:18.701Z,977.24
2022-12-11T11:59:18.680Z,977.29
2022-12-11T12:00:18.671Z,977.23
2022-12-11T12:01:18.681Z,977.24
2022-12-11T12:02:18.738Z,977.26
2022-12-11T12:03:18.641Z,977.29
2022-12-11T12:04:18.651Z,977.26
2022-12-11T12:05:18.633Z,977.26
2022-12-11T12:06:18.614Z,977.33
2022-12-11T12:07:18.622Z,977.25
2022-12-11T12:08:18.750Z,977.29
2022-12-11T12:09:18.627Z,977.25
2022-12-11T12:10:18.580Z,977.31
2022-12-11T12:11:18.561Z,977.27
2022-12-11T12:12:25.539Z,977.24
2022-12-11T12:13:48.201Z,977.25
2022-12-11T12:14:50.679Z,977.24
2022-12-11T12:15:19.511Z,977.24
2022-12-11T12:16:50.968Z,977.27
2022-12-11T12:17:19.613Z,977.24
2022-12-11T12:18:18.481Z,977.27
2022-12-11T12:19:18.483Z,977.26
2022-12-11T12:20:18.491Z,977.25
2022-12-11T12:21:18.463Z,977.28
2022-12-11T12:22:18.443Z,977.31
2022-12-11T12:23:18.444Z,977.29
2022-12-11T12:24:18.423Z,977.29
2022-12-11T12:25:18.424Z,977.29
2022-12-11T12:26:18.413Z,977.23
2022-12-11T12:27:50.546Z,977.33
2022-12-11T12:28:19.412Z,977.26
2022-12-11T12:29:18.382Z,977.32